createdAt,value
2023-01-07T00:01:44.191Z,9.30
2023-01-07T00:04:30.350Z,9.30
2023-01-07T00:07:16.322Z,9.30
2023-01-07T00:10:02.359Z,9.30
2023-01-07T00:12:48.537Z,9.30
2023-01-07T00:15:34.551Z,9.20
2023-01-07T00:18:20.594Z,9.30
2023-01-07T00:21:07.929Z,9.40
2023-01-07T00:23:55.784Z,9.50
2023-01-07T00:26:41.703Z,9.50
2023-01-07T00:29:27.544Z,9.50
2023-01-07T00:32:13.525Z,9.50
2023-01-07T00:34:59.618Z,9.50
2023-01-07T00:37:51.688Z,9.50
2023-01-07T00:40:38.018Z,9.50
2023-01-07T00:43:24.112Z,9.50
2023-01-07T00:46:11.972Z,9.50
2023-01-07T00:48:57.799Z,9.50
2023-01-07T00:51:43.488Z,9.40
2023-01-07T00:54:29.706Z,9.30
2023-01-07T00:57:15.314Z,9.20
2023-01-07T01:00:01.412Z,9.10
2023-01-07T01:02:47.930Z,9.20
2023-01-07T01:05:34.341Z,9.20
2023-01-07T01:08:21.233Z,9.20
2023-01-07T01:11:07.995Z,9.20
2023-01-07T01:13:53.857Z,9.20
2023-01-07T01:16:40.090Z,9.20
2023-01-07T01:19:26.222Z,9.30
2023-01-07T01:22:12.263Z,9.40
2023-01-07T01:24:58.250Z,9.40
2023-01-07T01:27:44.184Z,9.40
2023-01-07T01:30:30.236Z,9.40
2023-01-07T01:33:17.920Z,9.50
2023-01-07T01:36:05.828Z,9.50
2023-01-07T01:38:52.070Z,9.50
2023-01-07T01:41:38.402Z,9.50
2023-01-07T01:44:43.042Z,9.50
2023-01-07T01:47:46.057Z,9.50
2023-01-07T01:50:32.401Z,9.40
2023-01-07T01:53:24.395Z,9.40
2023-01-07T01:56:12.891Z,9.30
2023-01-07T01:59:01.295Z,9.20
2023-01-07T02:01:48.207Z,9.20
2023-01-07T02:04:36.464Z,9.20
2023-01-07T02:07:22.816Z,9.20
2023-01-07T02:10:15.835Z,9.20
2023-01-07T02:13:17.495Z,9.20
2023-01-07T02:16:25.842Z,9.20
2023-01-07T02:19:27.058Z,9.30
2023-01-07T02:22:16.204Z,9.30
2023-01-07T02:25:05.380Z,9.40
2023-01-07T02:28:07.807Z,9.40
2023-01-07T02:31:12.281Z,9.50
2023-01-07T02:34:08.972Z,9.50
2023-01-07T02:37:14.602Z,9.40
2023-01-07T02:40:19.385Z,9.50
2023-01-07T02:43:10.993Z,9.40
2023-01-07T02:46:05.193Z,9.30
2023-01-07T02:48:51.517Z,9.30
2023-01-07T02:51:39.603Z,9.30
2023-01-07T02:54:27.315Z,9.30
2023-01-07T02:57:14.879Z,9.20
2023-01-07T03:00:07.040Z,9.20
2023-01-07T03:02:56.286Z,9.20
2023-01-07T03:05:51.200Z,9.20
2023-01-07T03:08:46.613Z,9.10
2023-01-07T03:11:52.235Z,9.10
2023-01-07T03:14:41.239Z,9.00
2023-01-07T03:17:34.524Z,9.00
2023-01-07T03:20:22.508Z,9.00
2023-01-07T03:23:11.068Z,9.00
2023-01-07T03:25:59.088Z,9.10
2023-01-07T03:28:45.783Z,9.10
2023-01-07T03:31:32.159Z,9.10
2023-01-07T03:34:21.106Z,9.00
2023-01-07T03:37:11.994Z,9.00
2023-01-07T03:39:58.927Z,9.10
2023-01-07T03:42:47.904Z,9.20
2023-01-07T03:45:52.459Z,9.20
2023-01-07T03:48:38.629Z,9.30
2023-01-07T03:51:24.760Z,9.30
2023-01-07T03:54:11.391Z,9.40
2023-01-07T03:56:57.467Z,9.40
2023-01-07T03:59:43.425Z,9.40
2023-01-07T04:02:30.167Z,9.30
2023-01-07T04:05:16.775Z,9.30
2023-01-07T04:08:02.808Z,9.30
2023-01-07T04:10:52.955Z,9.20
2023-01-07T04:13:38.894Z,9.20
2023-01-07T04:16:25.004Z,9.20
2023-01-07T04:19:11.180Z,9.20
2023-01-07T04:21:57.023Z,9.20
2023-01-07T04:24:43.046Z,9.20
2023-01-07T04:27:30.908Z,9.10
2023-01-07T04:30:17.287Z,9.00
2023-01-07T04:33:03.625Z,9.00
2023-01-07T04:35:49.744Z,9.00
2023-01-07T04:38:37.513Z,9.00
2023-01-07T04:41:24.985Z,9.00
2023-01-07T04:44:11.310Z,9.00
2023-01-07T04:46:57.123Z,8.90
2023-01-07T04:49:44.157Z,8.90
2023-01-07T04:52:30.818Z,8.90
2023-01-07T04:55:17.667Z,8.90
2023-01-07T04:58:04.971Z,8.90
2023-01-07T05:00:54.054Z,9.00
2023-01-07T05:03:41.737Z,9.00
2023-01-07T05:06:28.299Z,9.00
2023-01-07T05:09:14.262Z,9.00
2023-01-07T05:12:00.995Z,9.00
2023-01-07T05:14:47.454Z,8.90
2023-01-07T05:17:34.104Z,8.90
2023-01-07T05:20:21.170Z,8.70
2023-01-07T05:23:07.191Z,8.70
2023-01-07T05:25:53.928Z,8.70
2023-01-07T05:28:40.166Z,8.70
2023-01-07T05:31:26.094Z,8.70
2023-01-07T05:34:12.160Z,8.70
2023-01-07T05:36:58.195Z,8.70
2023-01-07T05:39:44.248Z,8.70
2023-01-07T05:42:35.410Z,8.60
2023-01-07T05:45:21.858Z,8.60
2023-01-07T05:48:07.597Z,8.60
2023-01-07T05:50:53.674Z,8.60
2023-01-07T05:53:39.870Z,8.50
2023-01-07T05:56:25.895Z,8.40
2023-01-07T05:59:11.825Z,8.40
2023-01-07T06:01:57.720Z,8.10
2023-01-07T06:04:44.034Z,8.00
2023-01-07T06:07:29.903Z,7.90
2023-01-07T06:10:15.977Z,7.80
2023-01-07T06:13:04.778Z,7.80
2023-01-07T06:15:50.846Z,7.70
2023-01-07T06:18:36.965Z,7.70
2023-01-07T06:21:22.597Z,7.60
2023-01-07T06:24:08.806Z,7.50
2023-01-07T06:26:54.587Z,7.40
2023-01-07T06:29:40.553Z,7.40
2023-01-07T06:32:26.801Z,7.30
2023-01-07T06:35:12.491Z,7.20
2023-01-07T06:37:58.391Z,7.20
2023-01-07T06:40:44.703Z,7.10
2023-01-07T06:43:30.668Z,7.10
2023-01-07T06:46:16.801Z,7.10
2023-01-07T06:49:02.802Z,7.00
2023-01-07T06:51:48.874Z,6.90
2023-01-07T06:54:35.043Z,6.90
2023-01-07T06:57:21.123Z,6.80
2023-01-07T07:00:07.288Z,6.70
2023-01-07T07:02:53.028Z,6.60
2023-01-07T07:05:38.924Z,6.60
2023-01-07T07:08:25.076Z,6.50
2023-01-07T07:11:10.964Z,6.50
2023-01-07T07:13:56.998Z,6.40
2023-01-07T07:16:43.069Z,6.40
2023-01-07T07:19:28.977Z,6.40
2023-01-07T07:22:14.942Z,6.40
2023-01-07T07:25:00.932Z,6.30
2023-01-07T07:27:47.045Z,6.30
2023-01-07T07:30:45.532Z,6.30
2023-01-07T07:33:32.352Z,6.30
2023-01-07T07:36:18.458Z,6.30
2023-01-07T07:39:04.694Z,6.30
2023-01-07T07:41:50.367Z,6.30
2023-01-07T07:44:37.490Z,6.40
2023-01-07T07:47:23.414Z,6.40
2023-01-07T07:50:09.470Z,6.60
2023-01-07T07:52:55.174Z,6.80
2023-01-07T07:55:41.193Z,7.30
2023-01-07T07:58:27.192Z,7.80
2023-01-07T08:01:13.167Z,8.40
2023-01-07T08:03:59.234Z,9.10
2023-01-07T08:06:45.183Z,10.10
2023-01-07T08:09:30.821Z,11.10
2023-01-07T08:12:16.816Z,11.60
2023-01-07T08:15:02.841Z,12.10
2023-01-07T08:17:55.997Z,12.50
2023-01-07T08:20:42.022Z,12.40
2023-01-07T08:23:28.611Z,12.30
2023-01-07T08:26:14.365Z,12.30
2023-01-07T08:29:00.129Z,12.40
2023-01-07T08:31:46.326Z,12.00
2023-01-07T08:34:32.256Z,11.60
2023-01-07T08:37:18.352Z,11.50
2023-01-07T08:40:06.148Z,11.40
2023-01-07T08:42:51.936Z,11.20
2023-01-07T08:45:38.190Z,10.90
2023-01-07T08:48:24.015Z,10.70
2023-01-07T08:51:10.060Z,10.50
2023-01-07T08:53:55.981Z,10.60
2023-01-07T08:56:42.111Z,10.30
2023-01-07T08:59:28.116Z,10.00
2023-01-07T09:02:15.528Z,9.70
2023-01-07T09:05:01.494Z,9.50
2023-01-07T09:07:51.272Z,9.20
2023-01-07T09:10:37.570Z,9.00
2023-01-07T09:13:23.638Z,8.80
2023-01-07T09:16:09.952Z,8.60
2023-01-07T09:18:55.786Z,8.60
2023-01-07T09:21:41.726Z,8.50
2023-01-07T09:24:27.781Z,8.30
2023-01-07T09:27:14.655Z,8.30
2023-01-07T09:30:00.352Z,8.30
2023-01-07T09:32:46.564Z,8.30
2023-01-07T09:35:32.332Z,8.40
2023-01-07T09:38:18.271Z,8.50
2023-01-07T09:41:05.456Z,8.60
2023-01-07T09:44:00.566Z,8.70
2023-01-07T09:46:48.097Z,8.60
2023-01-07T09:49:33.894Z,8.60
2023-01-07T09:52:22.842Z,8.80
2023-01-07T09:55:17.843Z,9.20
2023-01-07T09:58:04.138Z,9.70
2023-01-07T10:01:04.917Z,10.40
2023-01-07T10:03:53.730Z,11.20
2023-01-07T10:06:45.905Z,12.00
2023-01-07T10:09:41.201Z,12.80
2023-01-07T10:12:48.927Z,13.20
2023-01-07T10:15:53.286Z,14.20
2023-01-07T10:18:58.166Z,14.90
2023-01-07T10:21:52.154Z,15.50
2023-01-07T10:24:39.783Z,15.20
2023-01-07T10:27:30.244Z,14.20
2023-01-07T10:30:18.935Z,13.80
2023-01-07T10:33:15.996Z,14.50
2023-01-07T10:36:20.504Z,15.30
2023-01-07T10:39:25.365Z,15.30
2023-01-07T10:42:20.667Z,15.00
2023-01-07T10:45:16.122Z,15.70
2023-01-07T10:48:37.783Z,17.00
2023-01-07T10:51:36.340Z,17.30
2023-01-07T10:54:22.362Z,18.10
2023-01-07T10:57:22.742Z,19.10
2023-01-07T11:00:12.895Z,19.80
2023-01-07T11:02:59.993Z,20.50
2023-01-07T11:05:47.028Z,20.90
2023-01-07T11:08:37.113Z,21.60
2023-01-07T11:11:24.170Z,22.30
2023-01-07T11:14:13.005Z,22.60
2023-01-07T11:17:22.041Z,23.00
2023-01-07T11:20:08.518Z,23.10
2023-01-07T11:22:54.900Z,22.10
2023-01-07T11:25:41.115Z,21.60
2023-01-07T11:28:27.267Z,20.60
2023-01-07T11:31:13.272Z,19.80
2023-01-07T11:34:02.068Z,19.00
2023-01-07T11:36:49.910Z,18.90
2023-01-07T11:39:36.282Z,19.20
2023-01-07T11:42:40.587Z,19.80
2023-01-07T11:45:27.960Z,20.20
2023-01-07T11:48:19.822Z,20.10
2023-01-07T11:51:06.729Z,20.70
2023-01-07T11:53:55.358Z,21.30
2023-01-07T11:56:41.491Z,21.40
2023-01-07T11:59:28.526Z,21.90
2023-01-07T12:02:27.014Z,22.20
2023-01-07T12:05:31.668Z,22.50
2023-01-07T12:08:19.422Z,23.30
2023-01-07T12:11:08.807Z,23.10
2023-01-07T12:13:55.435Z,22.60
2023-01-07T12:16:41.513Z,22.10
2023-01-07T12:19:31.550Z,21.20
2023-01-07T12:22:37.794Z,20.20
2023-01-07T12:25:33.682Z,19.00
2023-01-07T12:28:25.807Z,18.10
2023-01-07T12:31:11.836Z,17.50
2023-01-07T12:34:04.087Z,17.30
2023-01-07T12:36:55.400Z,17.50
2023-01-07T12:39:43.619Z,18.10
2023-01-07T12:42:32.177Z,19.00
2023-01-07T12:45:24.353Z,20.50
2023-01-07T12:48:16.750Z,21.60
2023-01-07T12:51:04.761Z,22.10
2023-01-07T12:53:53.015Z,22.30
2023-01-07T12:56:59.915Z,22.70
2023-01-07T12:59:57.942Z,22.80
2023-01-07T13:02:58.354Z,22.70
2023-01-07T13:05:59.655Z,22.70
2023-01-07T13:08:53.337Z,23.40
2023-01-07T13:12:06.813Z,23.40
2023-01-07T13:15:21.317Z,23.40
2023-01-07T13:18:07.327Z,23.30
2023-01-07T13:20:56.669Z,22.90
2023-01-07T13:24:00.031Z,22.60
2023-01-07T13:27:12.261Z,23.30
2023-01-07T13:30:19.079Z,22.90
2023-01-07T13:33:05.222Z,22.40
2023-01-07T13:36:03.823Z,22.00
2023-01-07T13:39:02.712Z,22.30
2023-01-07T13:42:01.893Z,23.20
2023-01-07T13:44:54.533Z,24.20
2023-01-07T13:48:00.485Z,24.80
2023-01-07T13:51:06.951Z,25.00
2023-01-07T13:53:52.822Z,25.20
2023-01-07T13:56:39.259Z,25.50
2023-01-07T13:59:30.021Z,25.50
2023-01-07T14:02:21.200Z,25.70
2023-01-07T14:05:10.169Z,25.30
2023-01-07T14:08:00.839Z,24.50
2023-01-07T14:10:51.974Z,24.00
2023-01-07T14:13:47.093Z,24.30
2023-01-07T14:16:33.167Z,24.20
2023-01-07T14:19:19.073Z,23.50
2023-01-07T14:22:08.058Z,23.60
2023-01-07T14:24:57.019Z,23.80
2023-01-07T14:27:43.076Z,24.40
2023-01-07T14:30:51.109Z,24.70
2023-01-07T14:33:38.424Z,25.30
2023-01-07T14:36:25.078Z,25.40
2023-01-07T14:39:30.744Z,25.80
2023-01-07T14:42:16.833Z,25.50
2023-01-07T14:45:02.931Z,25.50
2023-01-07T14:47:48.750Z,25.70
2023-01-07T14:50:53.841Z,25.20
2023-01-07T14:53:58.604Z,24.70
2023-01-07T14:57:03.447Z,23.60
2023-01-07T15:00:03.790Z,22.30
2023-01-07T15:02:52.761Z,21.40
2023-01-07T15:05:57.818Z,20.20
2023-01-07T15:09:05.067Z,19.20
2023-01-07T15:12:11.564Z,18.60
2023-01-07T15:15:31.413Z,18.80
2023-01-07T15:18:17.317Z,18.90
2023-01-07T15:21:21.915Z,18.20
2023-01-07T15:24:26.870Z,17.30
2023-01-07T15:27:24.023Z,16.10
2023-01-07T15:30:15.916Z,15.10
2023-01-07T15:33:20.906Z,14.30
2023-01-07T15:36:09.578Z,13.60
2023-01-07T15:38:56.256Z,12.90
2023-01-07T15:41:42.495Z,12.60
2023-01-07T15:44:35.027Z,12.40
2023-01-07T15:47:29.523Z,12.20
2023-01-07T15:50:27.876Z,11.90
2023-01-07T15:53:13.715Z,11.70
2023-01-07T15:55:59.890Z,11.50
2023-01-07T15:58:48.741Z,11.20
2023-01-07T16:01:46.844Z,11.00
2023-01-07T16:04:34.273Z,10.70
2023-01-07T16:07:26.840Z,10.60
2023-01-07T16:10:38.977Z,10.50
2023-01-07T16:13:24.761Z,10.30
2023-01-07T16:16:15.291Z,10.20
2023-01-07T16:19:02.091Z,10.10
2023-01-07T16:21:51.250Z,10.00
2023-01-07T16:24:37.267Z,9.80
2023-01-07T16:27:28.025Z,9.60
2023-01-07T16:30:15.196Z,9.50
2023-01-07T16:33:01.186Z,9.40
2023-01-07T16:35:47.823Z,9.20
2023-01-07T16:38:36.508Z,9.30
2023-01-07T16:41:26.708Z,9.30
2023-01-07T16:44:33.358Z,9.20
2023-01-07T16:47:21.559Z,9.30
2023-01-07T16:50:13.294Z,9.30
2023-01-07T16:52:59.543Z,9.30
2023-01-07T16:55:46.899Z,9.30
2023-01-07T16:58:53.021Z,9.30
2023-01-07T17:01:39.046Z,9.30
2023-01-07T17:04:27.981Z,9.20
2023-01-07T17:07:22.330Z,9.20
2023-01-07T17:10:17.052Z,9.00
2023-01-07T17:13:03.109Z,8.90
2023-01-07T17:15:49.082Z,8.70
2023-01-07T17:18:35.435Z,8.60
2023-01-07T17:21:33.572Z,8.30
2023-01-07T17:24:28.724Z,8.10
2023-01-07T17:27:18.151Z,7.80
2023-01-07T17:30:04.732Z,7.80
2023-01-07T17:32:51.250Z,7.70
2023-01-07T17:35:43.292Z,7.50
2023-01-07T17:38:29.645Z,7.20
2023-01-07T17:41:35.819Z,7.10
2023-01-07T17:44:22.242Z,7.10
2023-01-07T17:47:10.642Z,7.10
2023-01-07T17:49:56.538Z,7.20
2023-01-07T17:52:49.961Z,7.20
2023-01-07T17:55:36.290Z,7.10
2023-01-07T17:58:33.176Z,7.10
2023-01-07T18:01:21.135Z,7.00
2023-01-07T18:04:07.220Z,7.10
2023-01-07T18:06:53.110Z,7.10
2023-01-07T18:09:40.946Z,7.10
2023-01-07T18:12:30.897Z,7.00
2023-01-07T18:15:18.464Z,6.80
2023-01-07T18:18:04.658Z,6.80
2023-01-07T18:20:50.819Z,6.80
2023-01-07T18:23:36.607Z,6.60
2023-01-07T18:26:22.621Z,6.50
2023-01-07T18:29:09.263Z,6.50
2023-01-07T18:31:55.035Z,6.40
2023-01-07T18:34:41.150Z,6.40
2023-01-07T18:37:27.002Z,6.20
2023-01-07T18:40:12.999Z,6.20
2023-01-07T18:43:00.773Z,6.10
2023-01-07T18:45:46.873Z,6.20
2023-01-07T18:48:33.011Z,6.10
2023-01-07T18:51:19.069Z,6.10
2023-01-07T18:54:05.980Z,6.00
2023-01-07T18:56:51.964Z,5.90
2023-01-07T18:59:37.983Z,5.90
2023-01-07T19:02:24.048Z,5.90
2023-01-07T19:05:10.321Z,5.90
2023-01-07T19:07:56.019Z,5.70
2023-01-07T19:10:42.129Z,5.60
2023-01-07T19:13:28.150Z,5.60
2023-01-07T19:16:14.370Z,5.60
2023-01-07T19:19:00.134Z,5.50
2023-01-07T19:21:48.090Z,5.40
2023-01-07T19:24:34.163Z,5.40
2023-01-07T19:27:20.274Z,5.50
2023-01-07T19:30:06.716Z,5.60
2023-01-07T19:32:53.297Z,5.70
2023-01-07T19:35:39.247Z,5.70
2023-01-07T19:38:25.255Z,5.60
2023-01-07T19:41:12.175Z,5.70
2023-01-07T19:43:59.210Z,5.80
2023-01-07T19:46:45.064Z,5.70
2023-01-07T19:49:31.030Z,5.70
2023-01-07T19:52:17.512Z,5.70
2023-01-07T19:55:03.736Z,5.80
2023-01-07T19:57:49.454Z,5.70
2023-01-07T20:00:35.963Z,5.70
2023-01-07T20:03:22.177Z,5.80
2023-01-07T20:06:10.094Z,5.90
2023-01-07T20:08:57.048Z,6.00
2023-01-07T20:11:43.255Z,6.00
2023-01-07T20:14:29.108Z,6.00
2023-01-07T20:17:15.171Z,5.90
2023-01-07T20:20:01.157Z,5.80
2023-01-07T20:22:48.609Z,5.70
2023-01-07T20:25:34.478Z,5.60
2023-01-07T20:28:21.558Z,5.50
2023-01-07T20:31:08.333Z,5.50
2023-01-07T20:33:57.647Z,5.40
2023-01-07T20:36:43.822Z,5.30
2023-01-07T20:39:29.767Z,5.30
2023-01-07T20:42:15.908Z,5.30
2023-01-07T20:45:02.085Z,5.30
2023-01-07T20:47:47.998Z,5.30
2023-01-07T20:50:35.993Z,5.30
2023-01-07T20:53:22.285Z,5.20
2023-01-07T20:56:08.578Z,5.10
2023-01-07T20:58:57.285Z,5.00
2023-01-07T21:01:43.719Z,5.10
2023-01-07T21:04:30.437Z,5.00
2023-01-07T21:07:16.140Z,5.00
2023-01-07T21:10:02.339Z,4.90
2023-01-07T21:12:48.778Z,4.70
2023-01-07T21:15:36.363Z,4.60
2023-01-07T21:18:22.286Z,4.60
2023-01-07T21:21:12.760Z,4.50
2023-01-07T21:23:58.865Z,4.50
2023-01-07T21:26:44.614Z,4.50
2023-01-07T21:29:30.622Z,4.50
2023-01-07T21:32:16.908Z,4.60
2023-01-07T21:35:02.663Z,4.50
2023-01-07T21:37:49.788Z,4.50
2023-01-07T21:40:35.443Z,4.60
2023-01-07T21:43:21.565Z,4.50
2023-01-07T21:46:08.120Z,4.50
2023-01-07T21:48:54.462Z,4.50
2023-01-07T21:51:40.417Z,4.40
2023-01-07T21:54:26.473Z,4.40
2023-01-07T21:57:12.467Z,4.40
2023-01-07T21:59:58.350Z,4.30
2023-01-07T22:02:44.801Z,4.30
2023-01-07T22:05:30.917Z,4.20
2023-01-07T22:08:16.999Z,4.10
2023-01-07T22:11:03.295Z,4.10
2023-01-07T22:13:49.819Z,4.10
2023-01-07T22:16:35.631Z,4.10
2023-01-07T22:19:21.742Z,4.00
2023-01-07T22:22:07.533Z,3.90
2023-01-07T22:24:53.193Z,3.90
2023-01-07T22:27:39.279Z,3.80
2023-01-07T22:30:35.241Z,3.90
2023-01-07T22:33:22.722Z,3.80
2023-01-07T22:36:09.166Z,3.80
2023-01-07T22:38:56.959Z,3.80
2023-01-07T22:41:43.779Z,3.80
2023-01-07T22:44:34.925Z,3.60
2023-01-07T22:47:22.553Z,3.50
2023-01-07T22:50:09.382Z,3.50
2023-01-07T22:52:55.363Z,3.50
2023-01-07T22:55:41.202Z,3.60
2023-01-07T22:58:27.250Z,3.70
2023-01-07T23:01:14.215Z,3.80
2023-01-07T23:04:00.455Z,3.80
2023-01-07T23:06:46.555Z,3.80
2023-01-07T23:09:32.351Z,3.80
2023-01-07T23:12:18.436Z,3.70
2023-01-07T23:15:04.824Z,3.60
2023-01-07T23:17:50.889Z,3.50
2023-01-07T23:20:41.062Z,3.40
2023-01-07T23:23:27.189Z,3.40
2023-01-07T23:26:13.663Z,3.40
2023-01-07T23:28:59.338Z,3.40
2023-01-07T23:31:45.481Z,3.40
2023-01-07T23:34:31.212Z,3.50
2023-01-07T23:37:17.226Z,3.50
2023-01-07T23:40:03.827Z,3.50
2023-01-07T23:42:49.721Z,3.40
2023-01-07T23:45:35.718Z,3.20
2023-01-07T23:48:21.806Z,3.10
2023-01-07T23:51:17.945Z,3.00
2023-01-07T23:54:03.724Z,2.90
2023-01-07T23:56:50.199Z,3.00
2023-01-07T23:59:36.232Z,3.10
